Columbus, Illinois
Current Conditions -  °F | °C
As of 8:54 PM on Saturday 20 Dec 2014 (Local Time) from KUIN Reporting Station
Overcast Overcast  
Wind Chill: 33°   Ceiling: 3600
Heat Index: 38°   Visibility: 7mi
Dew Point: 33°   Wind: 7mph
Humidity: 83%   Direction: 180°S
Pressure: 30.2"   Gusts: NA
Location:  39.9302°N, 91.3035°W
Report Text: KUIN 210254Z AUTO 18006KT 7SM OVC036 03/01 A3020 RMK AO2 SLP231 T00330006 55003
Loading
Personal Weather Stations






























Interactive Weather Map New forecast layout! Learn more

10-Day Weather Forecast

Advertisements
Track Severe Weather on mobile